Poughkeepsie, New York
Current Conditions -  °F | °C
As of 5:53 AM on Friday 24 Oct 2014 (Local Time) from KPOU Reporting Station
Light Rain Light Rain  
Wind Chill: 49°   Ceiling: 9000
Heat Index: 49°   Visibility: 10mi
Dew Point: 44°   Wind: 3mph
Humidity: 83%   Direction: 340°NNW
Pressure: 29.8"   Gusts: NA
Location:  41.71°N, 73.93°W
Report Text: KPOU 240953Z AUTO 34003KT 10SM -RA SCT070 BKN090 BKN110 09/07 A2980 RMK AO2 RAB50 SLP087 P0000 T00940067 TSNO
Loading
Personal Weather Stations






























Interactive Weather Map
Tropical Storm Tracking
New forecast layout! Learn more

10-Day Weather Forecast

Advertisements
Track Severe Weather on mobile